EXS1641 EGSS-LGSK
Flight info
| Callsign | EXS1641 |
|---|---|
| Flight time | 2h 59m |
| Altitude | 37000 |
| Route | CLN M84 KONAN DCT KOK UL607 SPI DCT VIBOM DCT NOMBO DCT RIDAR DCT RADIZ DCT LUMUS DCT EBITI DCT DEVUL DCT BUNEX DCT MODRA DCT MEDUX UM867 KOGAT DCT ERANA UL737 TSL UL617 IBIDI |
| Aircraft | B738/M-SDE2E3FGHIRWXY/LB1 |
Departure
| Time | 2026-05-06 09:27 |
|---|---|
| Airport | London Stansted Airport (EGSS) |
Arrival
| Time | 2026-05-06 12:27 |
|---|---|
| Airport | Skiathos Island National Airport (LGSK) |
| Time | Latitude | Longitude | Altitude | Speed | Heading |
|---|---|---|---|---|---|
| 2026-05-06 09:00 | 51.88947 | 0.25221 | 352 ft | 0 kts | 43° |
| 2026-05-06 09:15 | 51.88946 | 0.25221 | 351 ft | 1 kts | 43° |
| 2026-05-06 09:15 | 51.88936 | 0.25205 | 361 ft | 3 kts | 39° |
| 2026-05-06 09:16 | 51.88920 | 0.25186 | 360 ft | 3 kts | 28° |
| 2026-05-06 09:16 | 51.88901 | 0.25174 | 361 ft | 3 kts | 8° |
| 2026-05-06 09:16 | 51.88884 | 0.25175 | 361 ft | 3 kts | 329° |
| 2026-05-06 09:16 | 51.88877 | 0.25182 | 361 ft | 0 kts | 313° |
| 2026-05-06 09:19 | 51.88878 | 0.25180 | 361 ft | 1 kts | 314° |
| 2026-05-06 09:19 | 51.88897 | 0.25147 | 355 ft | 7 kts | 313° |
| 2026-05-06 09:19 | 51.88939 | 0.25075 | 354 ft | 10 kts | 314° |
| 2026-05-06 09:19 | 51.88967 | 0.24970 | 356 ft | 13 kts | 249° |
| 2026-05-06 09:20 | 51.88890 | 0.24847 | 353 ft | 19 kts | 223° |
| 2026-05-06 09:20 | 51.88817 | 0.24738 | 356 ft | 23 kts | 222° |
| 2026-05-06 09:20 | 51.88851 | 0.24604 | 355 ft | 18 kts | 320° |
| 2026-05-06 09:20 | 51.88867 | 0.24531 | 351 ft | 0 kts | 250° |
| 2026-05-06 09:21 | 51.88861 | 0.24514 | 350 ft | 6 kts | 237° |
| 2026-05-06 09:21 | 51.88812 | 0.24430 | 351 ft | 12 kts | 227° |
| 2026-05-06 09:21 | 51.88740 | 0.24328 | 347 ft | 18 kts | 223° |
| 2026-05-06 09:21 | 51.88623 | 0.24148 | 347 ft | 27 kts | 223° |
| 2026-05-06 09:22 | 51.88478 | 0.23930 | 338 ft | 29 kts | 223° |
| 2026-05-06 09:22 | 51.88344 | 0.23730 | 338 ft | 27 kts | 221° |
| 2026-05-06 09:22 | 51.88210 | 0.23528 | 334 ft | 26 kts | 224° |
| 2026-05-06 09:22 | 51.88080 | 0.23333 | 335 ft | 25 kts | 224° |
| 2026-05-06 09:23 | 51.87966 | 0.23163 | 334 ft | 24 kts | 220° |
| 2026-05-06 09:23 | 51.87851 | 0.22992 | 335 ft | 23 kts | 223° |
| 2026-05-06 09:23 | 51.87715 | 0.22786 | 334 ft | 29 kts | 223° |
| 2026-05-06 09:23 | 51.87571 | 0.22571 | 329 ft | 28 kts | 223° |
| 2026-05-06 09:24 | 51.87524 | 0.22427 | 326 ft | 13 kts | 296° |
| 2026-05-06 09:24 | 51.87582 | 0.22320 | 323 ft | 5 kts | 317° |
| 2026-05-06 09:24 | 51.87582 | 0.22319 | 323 ft | 0 kts | 317° |
| 2026-05-06 09:25 | 51.87583 | 0.22318 | 323 ft | 1 kts | 317° |
| 2026-05-06 09:25 | 51.87599 | 0.22294 | 323 ft | 7 kts | 321° |
| 2026-05-06 09:26 | 51.87672 | 0.22256 | 325 ft | 13 kts | 9° |
| 2026-05-06 09:26 | 51.87741 | 0.22340 | 326 ft | 12 kts | 41° |
| 2026-05-06 09:26 | 51.87810 | 0.22445 | 330 ft | 20 kts | 43° |
| 2026-05-06 09:26 | 51.88096 | 0.22872 | 334 ft | 91 kts | 41° |
| 2026-05-06 09:27 | 51.88716 | 0.23798 | 343 ft | 150 kts | 45° |
| 2026-05-06 09:27 | 51.89516 | 0.25062 | 786 ft | 166 kts | 40° |
| 2026-05-06 09:27 | 51.90356 | 0.26371 | 1620 ft | 166 kts | 39° |
| 2026-05-06 09:27 | 51.91143 | 0.27693 | 2491 ft | 167 kts | 50° |
| 2026-05-06 09:28 | 51.91613 | 0.29432 | 3280 ft | 170 kts | 75° |
| 2026-05-06 09:28 | 51.91599 | 0.31446 | 3805 ft | 194 kts | 97° |
| 2026-05-06 09:28 | 51.91084 | 0.33652 | 3990 ft | 228 kts | 111° |
| 2026-05-06 09:28 | 51.90358 | 0.36095 | 4000 ft | 254 kts | 111° |
| 2026-05-06 09:29 | 51.89566 | 0.38770 | 4249 ft | 270 kts | 112° |
| 2026-05-06 09:29 | 51.88746 | 0.41530 | 4867 ft | 274 kts | 112° |
| 2026-05-06 09:29 | 51.87917 | 0.44325 | 4979 ft | 276 kts | 112° |
| 2026-05-06 09:29 | 51.87094 | 0.47117 | 4989 ft | 273 kts | 111° |
| 2026-05-06 09:30 | 51.86292 | 0.49845 | 5018 ft | 270 kts | 111° |
| 2026-05-06 09:30 | 51.85489 | 0.52577 | 4982 ft | 267 kts | 111° |
| 2026-05-06 09:30 | 51.84697 | 0.55269 | 4980 ft | 263 kts | 112° |
| 2026-05-06 09:30 | 51.83916 | 0.57921 | 4984 ft | 261 kts | 111° |
| 2026-05-06 09:31 | 51.83270 | 0.60648 | 4974 ft | 258 kts | 101° |
| 2026-05-06 09:31 | 51.82990 | 0.63493 | 5022 ft | 256 kts | 90° |
| 2026-05-06 09:31 | 51.82999 | 0.66383 | 5461 ft | 261 kts | 83° |
| 2026-05-06 09:31 | 51.83118 | 0.69315 | 6323 ft | 265 kts | 82° |
| 2026-05-06 09:32 | 51.83249 | 0.72243 | 7124 ft | 269 kts | 84° |
| 2026-05-06 09:32 | 51.83380 | 0.75295 | 7905 ft | 275 kts | 84° |
| 2026-05-06 09:32 | 51.83505 | 0.78414 | 8686 ft | 281 kts | 83° |
| 2026-05-06 09:32 | 51.83629 | 0.81598 | 9415 ft | 287 kts | 83° |
| 2026-05-06 09:33 | 51.83755 | 0.84857 | 10145 ft | 293 kts | 83° |
| 2026-05-06 09:33 | 51.83879 | 0.88166 | 10859 ft | 297 kts | 84° |
| 2026-05-06 09:33 | 51.84004 | 0.91518 | 11610 ft | 299 kts | 85° |
| 2026-05-06 09:33 | 51.84130 | 0.94907 | 12232 ft | 309 kts | 85° |
| 2026-05-06 09:34 | 51.84263 | 0.98470 | 12522 ft | 320 kts | 85° |
| 2026-05-06 09:34 | 51.84393 | 1.02038 | 13477 ft | 315 kts | 86° |
| 2026-05-06 09:34 | 51.84521 | 1.05604 | 13967 ft | 317 kts | 86° |
| 2026-05-06 09:34 | 51.84646 | 1.09153 | 14567 ft | 315 kts | 88° |
| 2026-05-06 09:35 | 51.84319 | 1.12648 | 14907 ft | 320 kts | 114° |
| 2026-05-06 09:35 | 51.83078 | 1.15446 | 14932 ft | 311 kts | 144° |
| 2026-05-06 09:35 | 51.81146 | 1.17123 | 14978 ft | 317 kts | 160° |
| 2026-05-06 09:35 | 51.79078 | 1.18438 | 14962 ft | 320 kts | 161° |
| 2026-05-06 09:36 | 51.77003 | 1.19712 | 14951 ft | 317 kts | 161° |
| 2026-05-06 09:36 | 51.74949 | 1.20940 | 14938 ft | 313 kts | 161° |
| 2026-05-06 09:36 | 51.72912 | 1.22151 | 14944 ft | 311 kts | 162° |
| 2026-05-06 09:36 | 51.70869 | 1.23384 | 14953 ft | 316 kts | 161° |
| 2026-05-06 09:37 | 51.68799 | 1.24641 | 14963 ft | 319 kts | 161° |
| 2026-05-06 09:37 | 51.66714 | 1.25854 | 14955 ft | 318 kts | 164° |
| 2026-05-06 09:37 | 51.64608 | 1.26917 | 14950 ft | 316 kts | 165° |
| 2026-05-06 09:37 | 51.62484 | 1.27950 | 14985 ft | 325 kts | 165° |
| 2026-05-06 09:38 | 51.60254 | 1.29037 | 15169 ft | 345 kts | 164° |
| 2026-05-06 09:38 | 51.57895 | 1.30202 | 15349 ft | 364 kts | 165° |
| 2026-05-06 09:38 | 51.55447 | 1.31427 | 15858 ft | 371 kts | 163° |
| 2026-05-06 09:38 | 51.52981 | 1.32669 | 16567 ft | 373 kts | 163° |
| 2026-05-06 09:39 | 51.50499 | 1.33920 | 17234 ft | 376 kts | 163° |
| 2026-05-06 09:39 | 51.47994 | 1.35180 | 17894 ft | 379 kts | 163° |
| 2026-05-06 09:39 | 51.45478 | 1.36574 | 18393 ft | 387 kts | 156° |
| 2026-05-06 09:39 | 51.43160 | 1.38815 | 18940 ft | 393 kts | 143° |
| 2026-05-06 09:40 | 51.41202 | 1.41848 | 19625 ft | 393 kts | 130° |
| 2026-05-06 09:40 | 51.39517 | 1.45256 | 19921 ft | 391 kts | 128° |
| 2026-05-06 09:40 | 51.36199 | 1.52322 | 19959 ft | 398 kts | 128° |
| 2026-05-06 09:41 | 51.34539 | 1.55846 | 19941 ft | 396 kts | 128° |
| 2026-05-06 09:41 | 51.32865 | 1.59362 | 20077 ft | 400 kts | 128° |
| 2026-05-06 09:41 | 51.31166 | 1.62897 | 20673 ft | 400 kts | 128° |
| 2026-05-06 09:41 | 51.29462 | 1.66423 | 21235 ft | 403 kts | 128° |
| 2026-05-06 09:42 | 51.27748 | 1.69957 | 21934 ft | 401 kts | 128° |
| 2026-05-06 09:42 | 51.26035 | 1.73483 | 22486 ft | 404 kts | 129° |
| 2026-05-06 09:42 | 51.24300 | 1.77046 | 22922 ft | 409 kts | 128° |
| 2026-05-06 09:42 | 51.22548 | 1.80640 | 23404 ft | 412 kts | 129° |
| 2026-05-06 09:43 | 51.20799 | 1.84225 | 23777 ft | 417 kts | 129° |
| 2026-05-06 09:43 | 51.19017 | 1.87875 | 24296 ft | 416 kts | 129° |
| 2026-05-06 09:43 | 51.17240 | 1.91509 | 24774 ft | 417 kts | 129° |
| 2026-05-06 09:43 | 51.15455 | 1.95167 | 25208 ft | 419 kts | 127° |
| 2026-05-06 09:44 | 51.13952 | 1.99154 | 25604 ft | 422 kts | 115° |
| 2026-05-06 09:44 | 51.12968 | 2.03565 | 26011 ft | 425 kts | 105° |
| 2026-05-06 09:44 | 51.12505 | 2.08227 | 26407 ft | 428 kts | 95° |
| 2026-05-06 09:44 | 51.12268 | 2.12963 | 26849 ft | 429 kts | 95° |
| 2026-05-06 09:45 | 51.12054 | 2.17719 | 27208 ft | 432 kts | 95° |
| 2026-05-06 09:45 | 51.11831 | 2.22500 | 27566 ft | 435 kts | 95° |
| 2026-05-06 09:45 | 51.11592 | 2.27313 | 27946 ft | 436 kts | 96° |
| 2026-05-06 09:45 | 51.11340 | 2.32117 | 28358 ft | 437 kts | 95° |
| 2026-05-06 09:46 | 51.11077 | 2.36949 | 28670 ft | 440 kts | 96° |
| 2026-05-06 09:46 | 51.10805 | 2.41807 | 29018 ft | 441 kts | 96° |
| 2026-05-06 09:46 | 51.10531 | 2.46669 | 29394 ft | 442 kts | 96° |
| 2026-05-06 09:46 | 51.10254 | 2.51549 | 29740 ft | 444 kts | 96° |
| 2026-05-06 09:47 | 51.09975 | 2.56446 | 30022 ft | 446 kts | 96° |
| 2026-05-06 09:47 | 51.09692 | 2.61369 | 30267 ft | 448 kts | 96° |
| 2026-05-06 09:47 | 51.09320 | 2.66292 | 30527 ft | 449 kts | 102° |
| 2026-05-06 09:47 | 51.08556 | 2.71091 | 30873 ft | 447 kts | 107° |
| 2026-05-06 09:48 | 51.07676 | 2.75818 | 31263 ft | 445 kts | 108° |
| 2026-05-06 09:48 | 51.06777 | 2.80521 | 31568 ft | 445 kts | 107° |
| 2026-05-06 09:48 | 51.05878 | 2.85245 | 31863 ft | 446 kts | 107° |
| 2026-05-06 09:48 | 51.04999 | 2.89926 | 32459 ft | 438 kts | 107° |
| 2026-05-06 09:49 | 51.04139 | 2.94562 | 32820 ft | 438 kts | 107° |
| 2026-05-06 09:49 | 51.03280 | 2.99221 | 32966 ft | 441 kts | 107° |
| 2026-05-06 09:49 | 51.02419 | 3.03911 | 33261 ft | 441 kts | 107° |
| 2026-05-06 09:49 | 51.01563 | 3.08570 | 33643 ft | 439 kts | 106° |
| 2026-05-06 09:50 | 51.00704 | 3.13233 | 33888 ft | 440 kts | 106° |
| 2026-05-06 09:50 | 50.99854 | 3.17835 | 34096 ft | 441 kts | 107° |
| 2026-05-06 09:50 | 50.98977 | 3.22568 | 34317 ft | 441 kts | 107° |
| 2026-05-06 09:50 | 50.98121 | 3.27178 | 34487 ft | 443 kts | 107° |
| 2026-05-06 09:51 | 50.97247 | 3.31870 | 34672 ft | 443 kts | 107° |
| 2026-05-06 09:51 | 50.96374 | 3.36547 | 34941 ft | 442 kts | 107° |
| 2026-05-06 09:51 | 50.95499 | 3.41221 | 35143 ft | 443 kts | 107° |
| 2026-05-06 09:51 | 50.94618 | 3.45916 | 35283 ft | 445 kts | 107° |
| 2026-05-06 09:52 | 50.93733 | 3.50620 | 35472 ft | 445 kts | 108° |
| 2026-05-06 09:52 | 50.92849 | 3.55316 | 35693 ft | 445 kts | 108° |
| 2026-05-06 09:52 | 50.91961 | 3.60014 | 35871 ft | 446 kts | 108° |
| 2026-05-06 09:52 | 50.91070 | 3.64719 | 36033 ft | 446 kts | 109° |
| 2026-05-06 09:53 | 50.90168 | 3.69431 | 36219 ft | 447 kts | 108° |
| 2026-05-06 09:53 | 50.89262 | 3.74138 | 36413 ft | 447 kts | 108° |
| 2026-05-06 09:53 | 50.88350 | 3.78844 | 36569 ft | 448 kts | 108° |
| 2026-05-06 09:53 | 50.87431 | 3.83571 | 36691 ft | 450 kts | 109° |
| 2026-05-06 09:54 | 50.86513 | 3.88291 | 36844 ft | 448 kts | 108° |
| 2026-05-06 09:54 | 50.85595 | 3.93013 | 36855 ft | 450 kts | 109° |
| 2026-05-06 09:54 | 50.83748 | 4.02476 | 36867 ft | 450 kts | 109° |
| 2026-05-06 09:55 | 50.81895 | 4.11920 | 36870 ft | 450 kts | 109° |
| 2026-05-06 09:55 | 50.80036 | 4.21351 | 36872 ft | 449 kts | 109° |
| 2026-05-06 09:56 | 50.78174 | 4.30759 | 36891 ft | 449 kts | 109° |
| 2026-05-06 09:56 | 50.76302 | 4.40166 | 36881 ft | 449 kts | 109° |
| 2026-05-06 09:57 | 50.74425 | 4.49560 | 36875 ft | 448 kts | 109° |
| 2026-05-06 09:57 | 50.72542 | 4.58936 | 36874 ft | 448 kts | 109° |
| 2026-05-06 09:58 | 50.70699 | 4.68316 | 36858 ft | 447 kts | 109° |
| 2026-05-06 09:58 | 50.68893 | 4.77694 | 36860 ft | 447 kts | 109° |
| 2026-05-06 09:59 | 50.67070 | 4.87075 | 36856 ft | 449 kts | 109° |
| 2026-05-06 09:59 | 50.65203 | 4.96484 | 36845 ft | 451 kts | 110° |
| 2026-05-06 10:00 | 50.63268 | 5.05869 | 36837 ft | 450 kts | 110° |
| 2026-05-06 10:00 | 50.61328 | 5.15218 | 36820 ft | 449 kts | 110° |
| 2026-05-06 10:01 | 50.59395 | 5.24538 | 36833 ft | 447 kts | 110° |
| 2026-05-06 10:01 | 50.57462 | 5.33830 | 36840 ft | 446 kts | 110° |
| 2026-05-06 10:02 | 50.55526 | 5.43094 | 36827 ft | 446 kts | 110° |
| 2026-05-06 10:02 | 50.53585 | 5.52345 | 36832 ft | 445 kts | 110° |
| 2026-05-06 10:03 | 50.51635 | 5.61583 | 36812 ft | 446 kts | 111° |
| 2026-05-06 10:03 | 50.49377 | 5.70556 | 36823 ft | 445 kts | 116° |
| 2026-05-06 10:04 | 50.46844 | 5.79418 | 36824 ft | 446 kts | 117° |
| 2026-05-06 10:04 | 50.44301 | 5.88305 | 36830 ft | 447 kts | 116° |
| 2026-05-06 10:05 | 50.42186 | 5.95801 | 36810 ft | 450 kts | 116° |
| 2026-05-06 10:05 | 50.39254 | 6.06253 | 36805 ft | 451 kts | 116° |
| 2026-05-06 10:06 | 50.37134 | 6.13799 | 36788 ft | 452 kts | 116° |
| 2026-05-06 10:06 | 50.34600 | 6.22791 | 36788 ft | 451 kts | 116° |
| 2026-05-06 10:07 | 50.32063 | 6.31752 | 36772 ft | 450 kts | 116° |
| 2026-05-06 10:07 | 50.29524 | 6.40683 | 36771 ft | 449 kts | 116° |
| 2026-05-06 10:08 | 50.26986 | 6.49580 | 36746 ft | 447 kts | 117° |
| 2026-05-06 10:08 | 50.24465 | 6.58381 | 36756 ft | 446 kts | 117° |
| 2026-05-06 10:09 | 50.21929 | 6.67203 | 36762 ft | 445 kts | 117° |
| 2026-05-06 10:09 | 50.19390 | 6.76003 | 36765 ft | 444 kts | 117° |
| 2026-05-06 10:10 | 50.16850 | 6.84774 | 36774 ft | 444 kts | 117° |
| 2026-05-06 10:10 | 50.14303 | 6.93537 | 36773 ft | 444 kts | 117° |
| 2026-05-06 10:11 | 50.11750 | 7.02290 | 36777 ft | 444 kts | 117° |
| 2026-05-06 10:11 | 50.09188 | 7.11039 | 36779 ft | 444 kts | 117° |
| 2026-05-06 10:12 | 50.06615 | 7.19794 | 36776 ft | 445 kts | 117° |
| 2026-05-06 10:12 | 50.04030 | 7.28562 | 36774 ft | 446 kts | 117° |
| 2026-05-06 10:13 | 50.01430 | 7.37344 | 36772 ft | 447 kts | 118° |
| 2026-05-06 10:13 | 49.98819 | 7.46135 | 36771 ft | 449 kts | 118° |
| 2026-05-06 10:14 | 49.96194 | 7.54940 | 36742 ft | 450 kts | 118° |
| 2026-05-06 10:14 | 49.93551 | 7.63773 | 36741 ft | 451 kts | 118° |
| 2026-05-06 10:15 | 49.90894 | 7.72620 | 36748 ft | 453 kts | 118° |
| 2026-05-06 10:15 | 49.88227 | 7.81470 | 36746 ft | 453 kts | 119° |
| 2026-05-06 10:16 | 49.85551 | 7.90315 | 36751 ft | 453 kts | 119° |
| 2026-05-06 10:16 | 49.82868 | 7.99156 | 36756 ft | 453 kts | 119° |
| 2026-05-06 10:17 | 49.80177 | 8.07987 | 36757 ft | 455 kts | 119° |
| 2026-05-06 10:17 | 49.77450 | 8.16898 | 36765 ft | 462 kts | 120° |
| 2026-05-06 10:18 | 49.74675 | 8.25934 | 36772 ft | 468 kts | 120° |
| 2026-05-06 10:18 | 49.71866 | 8.35054 | 36777 ft | 472 kts | 120° |
| 2026-05-06 10:19 | 49.69029 | 8.44236 | 36789 ft | 474 kts | 120° |
| 2026-05-06 10:19 | 49.66185 | 8.53405 | 36794 ft | 474 kts | 120° |
| 2026-05-06 10:20 | 49.63325 | 8.62587 | 36786 ft | 474 kts | 120° |
| 2026-05-06 10:20 | 49.60465 | 8.71736 | 36794 ft | 473 kts | 120° |
| 2026-05-06 10:21 | 49.57601 | 8.80864 | 36790 ft | 472 kts | 120° |
| 2026-05-06 10:21 | 49.54737 | 8.89959 | 36783 ft | 471 kts | 120° |
| 2026-05-06 10:22 | 49.51871 | 8.99027 | 36760 ft | 470 kts | 120° |
| 2026-05-06 10:22 | 49.49005 | 9.08066 | 36774 ft | 470 kts | 120° |
| 2026-05-06 10:23 | 49.46081 | 9.17031 | 36776 ft | 467 kts | 125° |
| 2026-05-06 10:23 | 49.42585 | 9.25399 | 36785 ft | 465 kts | 128° |
| 2026-05-06 10:24 | 49.38968 | 9.33623 | 36789 ft | 465 kts | 128° |
| 2026-05-06 10:24 | 49.35380 | 9.41883 | 36758 ft | 466 kts | 128° |
| 2026-05-06 10:25 | 49.31806 | 9.50196 | 36788 ft | 468 kts | 128° |
| 2026-05-06 10:25 | 49.28226 | 9.58526 | 36799 ft | 469 kts | 128° |
| 2026-05-06 10:26 | 49.24622 | 9.66883 | 36799 ft | 471 kts | 128° |
| 2026-05-06 10:26 | 49.21034 | 9.75171 | 36803 ft | 471 kts | 128° |
| 2026-05-06 10:27 | 49.17407 | 9.83523 | 36800 ft | 471 kts | 128° |
| 2026-05-06 10:27 | 49.13771 | 9.91871 | 36805 ft | 472 kts | 128° |
| 2026-05-06 10:28 | 49.10122 | 10.00225 | 36803 ft | 473 kts | 128° |
| 2026-05-06 10:28 | 49.06435 | 10.08529 | 36794 ft | 471 kts | 133° |
| 2026-05-06 10:29 | 49.01983 | 10.15731 | 36799 ft | 465 kts | 141° |
| 2026-05-06 10:29 | 48.97356 | 10.22591 | 36797 ft | 463 kts | 141° |
| 2026-05-06 10:30 | 48.92765 | 10.29456 | 36818 ft | 463 kts | 141° |
| 2026-05-06 10:30 | 48.88200 | 10.36339 | 36818 ft | 462 kts | 141° |
| 2026-05-06 10:31 | 48.83648 | 10.43206 | 36827 ft | 461 kts | 141° |
| 2026-05-06 10:31 | 48.79097 | 10.50052 | 36832 ft | 460 kts | 141° |
| 2026-05-06 10:32 | 48.74556 | 10.56861 | 36822 ft | 458 kts | 141° |
| 2026-05-06 10:32 | 48.70027 | 10.63631 | 36831 ft | 457 kts | 141° |
| 2026-05-06 10:33 | 48.65502 | 10.70380 | 36842 ft | 456 kts | 141° |
| 2026-05-06 10:33 | 48.60975 | 10.77115 | 36834 ft | 457 kts | 141° |
| 2026-05-06 10:34 | 48.56606 | 10.84106 | 36825 ft | 460 kts | 135° |
| 2026-05-06 10:34 | 48.52613 | 10.91591 | 36819 ft | 460 kts | 134° |
| 2026-05-06 10:35 | 48.48615 | 10.99181 | 36795 ft | 459 kts | 135° |
| 2026-05-06 10:35 | 48.44611 | 11.06660 | 36806 ft | 458 kts | 135° |
| 2026-05-06 10:36 | 48.40611 | 11.14042 | 36803 ft | 458 kts | 135° |
| 2026-05-06 10:36 | 48.36576 | 11.21452 | 36811 ft | 458 kts | 135° |
| 2026-05-06 10:37 | 48.32537 | 11.28850 | 36807 ft | 457 kts | 135° |
| 2026-05-06 10:37 | 48.28494 | 11.36239 | 36805 ft | 458 kts | 135° |
| 2026-05-06 10:38 | 48.24446 | 11.43618 | 36809 ft | 458 kts | 135° |
| 2026-05-06 10:38 | 48.20391 | 11.50987 | 36805 ft | 458 kts | 135° |
| 2026-05-06 10:39 | 48.16329 | 11.58352 | 36804 ft | 458 kts | 135° |
| 2026-05-06 10:39 | 48.12261 | 11.65706 | 36802 ft | 458 kts | 136° |
| 2026-05-06 10:40 | 48.08191 | 11.73043 | 36801 ft | 458 kts | 136° |
| 2026-05-06 10:40 | 48.04115 | 11.80371 | 36780 ft | 459 kts | 136° |
| 2026-05-06 10:41 | 48.00034 | 11.87690 | 36791 ft | 459 kts | 136° |
| 2026-05-06 10:41 | 47.95940 | 11.95012 | 36767 ft | 460 kts | 136° |
| 2026-05-06 10:42 | 47.91832 | 12.02337 | 36795 ft | 461 kts | 136° |
| 2026-05-06 10:42 | 47.87703 | 12.09680 | 36788 ft | 462 kts | 136° |
| 2026-05-06 10:43 | 47.83591 | 12.16974 | 36794 ft | 463 kts | 136° |
| 2026-05-06 10:44 | 47.77331 | 12.28041 | 36762 ft | 464 kts | 136° |
| 2026-05-06 10:44 | 47.73169 | 12.35375 | 36783 ft | 464 kts | 136° |
| 2026-05-06 10:45 | 47.69027 | 12.42653 | 36773 ft | 464 kts | 136° |
| 2026-05-06 10:45 | 47.64825 | 12.50019 | 36767 ft | 464 kts | 136° |
| 2026-05-06 10:46 | 47.60651 | 12.57221 | 36761 ft | 462 kts | 138° |
| 2026-05-06 10:46 | 47.56291 | 12.64200 | 36763 ft | 461 kts | 140° |
| 2026-05-06 10:47 | 47.51895 | 12.71124 | 36778 ft | 461 kts | 140° |
| 2026-05-06 10:47 | 47.47518 | 12.78064 | 36767 ft | 462 kts | 139° |
| 2026-05-06 10:48 | 47.43147 | 12.85020 | 36777 ft | 462 kts | 140° |
| 2026-05-06 10:48 | 47.38771 | 12.91974 | 36798 ft | 462 kts | 140° |
| 2026-05-06 10:49 | 47.34386 | 12.98924 | 36782 ft | 462 kts | 139° |
| 2026-05-06 10:49 | 47.30009 | 13.05845 | 36819 ft | 462 kts | 140° |
| 2026-05-06 10:50 | 47.25620 | 13.12763 | 36774 ft | 463 kts | 140° |
| 2026-05-06 10:50 | 47.21215 | 13.19683 | 36843 ft | 462 kts | 140° |
| 2026-05-06 10:51 | 47.17546 | 13.25426 | 36863 ft | 465 kts | 140° |
| 2026-05-06 10:51 | 47.13110 | 13.32377 | 36810 ft | 467 kts | 139° |
| 2026-05-06 10:52 | 47.08679 | 13.39304 | 36877 ft | 464 kts | 139° |
| 2026-05-06 10:52 | 47.04233 | 13.46223 | 36902 ft | 467 kts | 140° |
| 2026-05-06 10:53 | 46.99760 | 13.53165 | 36893 ft | 470 kts | 139° |
| 2026-05-06 10:53 | 46.95254 | 13.60141 | 36898 ft | 472 kts | 139° |
| 2026-05-06 10:54 | 46.90729 | 13.67133 | 36896 ft | 475 kts | 139° |
| 2026-05-06 10:54 | 46.86181 | 13.74142 | 36910 ft | 476 kts | 139° |
| 2026-05-06 10:55 | 46.81618 | 13.81153 | 36926 ft | 477 kts | 139° |
| 2026-05-06 10:55 | 46.77040 | 13.88169 | 36920 ft | 477 kts | 139° |
| 2026-05-06 10:56 | 46.72459 | 13.95172 | 36897 ft | 477 kts | 139° |
| 2026-05-06 10:56 | 46.67870 | 14.02169 | 36923 ft | 477 kts | 139° |
| 2026-05-06 10:57 | 46.63311 | 14.09104 | 36926 ft | 477 kts | 139° |
| 2026-05-06 10:57 | 46.58714 | 14.16078 | 36916 ft | 477 kts | 139° |
| 2026-05-06 10:58 | 46.54196 | 14.23155 | 36923 ft | 478 kts | 138° |
| 2026-05-06 10:58 | 46.49717 | 14.30297 | 36910 ft | 478 kts | 137° |
| 2026-05-06 10:59 | 46.45239 | 14.37400 | 36918 ft | 476 kts | 137° |
| 2026-05-06 10:59 | 46.40757 | 14.44460 | 36929 ft | 476 kts | 137° |
| 2026-05-06 11:00 | 46.36263 | 14.51506 | 36972 ft | 477 kts | 138° |
| 2026-05-06 11:00 | 46.31757 | 14.58555 | 36949 ft | 478 kts | 137° |
| 2026-05-06 11:01 | 46.27235 | 14.65618 | 36963 ft | 478 kts | 138° |
| 2026-05-06 11:01 | 46.22718 | 14.72656 | 36967 ft | 478 kts | 138° |
| 2026-05-06 11:02 | 46.18192 | 14.79687 | 36959 ft | 477 kts | 138° |
| 2026-05-06 11:02 | 46.13670 | 14.86693 | 36965 ft | 477 kts | 138° |
| 2026-05-06 11:03 | 46.09139 | 14.93697 | 36954 ft | 477 kts | 138° |
| 2026-05-06 11:03 | 46.04636 | 15.00661 | 36958 ft | 478 kts | 137° |
| 2026-05-06 11:04 | 46.00189 | 15.07770 | 36963 ft | 479 kts | 136° |
| 2026-05-06 11:04 | 45.95755 | 15.14919 | 36971 ft | 479 kts | 137° |
| 2026-05-06 11:05 | 45.91310 | 15.22044 | 36952 ft | 478 kts | 137° |
| 2026-05-06 11:05 | 45.86862 | 15.29133 | 36964 ft | 478 kts | 137° |
| 2026-05-06 11:06 | 45.82399 | 15.36220 | 36961 ft | 478 kts | 137° |
| 2026-05-06 11:06 | 45.77938 | 15.43285 | 36962 ft | 478 kts | 137° |
| 2026-05-06 11:07 | 45.73478 | 15.50331 | 36965 ft | 478 kts | 137° |
| 2026-05-06 11:07 | 45.69009 | 15.57374 | 36940 ft | 478 kts | 137° |
| 2026-05-06 11:08 | 45.64537 | 15.64403 | 36946 ft | 477 kts | 137° |
| 2026-05-06 11:08 | 45.60067 | 15.71412 | 36949 ft | 477 kts | 137° |
| 2026-05-06 11:09 | 45.55591 | 15.78412 | 36921 ft | 477 kts | 137° |
| 2026-05-06 11:09 | 45.51148 | 15.85343 | 36941 ft | 476 kts | 137° |
| 2026-05-06 11:10 | 45.46647 | 15.92346 | 36942 ft | 476 kts | 137° |
| 2026-05-06 11:10 | 45.42207 | 15.99239 | 36949 ft | 475 kts | 137° |
| 2026-05-06 11:11 | 45.37735 | 16.06162 | 36944 ft | 475 kts | 137° |
| 2026-05-06 11:11 | 45.33272 | 16.13054 | 36946 ft | 473 kts | 137° |
| 2026-05-06 11:12 | 45.28813 | 16.19924 | 36944 ft | 472 kts | 137° |
| 2026-05-06 11:12 | 45.24357 | 16.26772 | 36950 ft | 472 kts | 137° |
| 2026-05-06 11:13 | 45.19903 | 16.33600 | 36935 ft | 472 kts | 137° |
| 2026-05-06 11:13 | 45.15447 | 16.40417 | 36936 ft | 470 kts | 138° |
| 2026-05-06 11:14 | 45.11003 | 16.47207 | 36950 ft | 470 kts | 137° |
| 2026-05-06 11:14 | 45.06572 | 16.54013 | 36944 ft | 470 kts | 137° |
| 2026-05-06 11:15 | 45.02141 | 16.60816 | 36950 ft | 470 kts | 137° |
| 2026-05-06 11:15 | 44.97710 | 16.67602 | 36934 ft | 470 kts | 137° |
| 2026-05-06 11:16 | 44.93276 | 16.74370 | 36943 ft | 470 kts | 137° |
| 2026-05-06 11:16 | 44.88833 | 16.81134 | 36949 ft | 469 kts | 137° |
| 2026-05-06 11:17 | 44.84394 | 16.87874 | 36946 ft | 470 kts | 137° |
| 2026-05-06 11:17 | 44.79946 | 16.94613 | 36924 ft | 470 kts | 137° |
| 2026-05-06 11:18 | 44.75492 | 17.01345 | 36942 ft | 470 kts | 137° |
| 2026-05-06 11:18 | 44.71035 | 17.08064 | 36947 ft | 470 kts | 137° |
| 2026-05-06 11:19 | 44.66576 | 17.14771 | 36930 ft | 470 kts | 137° |
| 2026-05-06 11:19 | 44.62116 | 17.21464 | 36946 ft | 469 kts | 137° |
| 2026-05-06 11:20 | 44.57649 | 17.28149 | 36930 ft | 470 kts | 137° |
| 2026-05-06 11:20 | 44.53211 | 17.34776 | 36951 ft | 470 kts | 137° |
| 2026-05-06 11:21 | 44.48694 | 17.41504 | 36964 ft | 471 kts | 137° |
| 2026-05-06 11:21 | 44.44223 | 17.48148 | 36961 ft | 472 kts | 137° |
| 2026-05-06 11:22 | 44.39709 | 17.54839 | 36957 ft | 473 kts | 137° |
| 2026-05-06 11:22 | 44.35181 | 17.61535 | 36957 ft | 474 kts | 137° |
| 2026-05-06 11:23 | 44.30649 | 17.68223 | 36972 ft | 474 kts | 137° |
| 2026-05-06 11:23 | 44.26109 | 17.74904 | 36963 ft | 474 kts | 137° |
| 2026-05-06 11:24 | 44.21564 | 17.81579 | 36954 ft | 474 kts | 137° |
| 2026-05-06 11:24 | 44.17025 | 17.88228 | 36977 ft | 474 kts | 137° |
| 2026-05-06 11:25 | 44.12475 | 17.94875 | 36958 ft | 474 kts | 137° |
| 2026-05-06 11:25 | 44.07925 | 18.01509 | 36972 ft | 474 kts | 137° |
| 2026-05-06 11:26 | 44.03680 | 18.07683 | 36969 ft | 475 kts | 137° |
| 2026-05-06 11:26 | 43.99114 | 18.14309 | 37000 ft | 475 kts | 137° |
| 2026-05-06 11:27 | 43.94589 | 18.20859 | 36996 ft | 476 kts | 137° |
| 2026-05-06 11:27 | 43.89995 | 18.27495 | 36974 ft | 477 kts | 137° |
| 2026-05-06 11:28 | 43.85401 | 18.34114 | 37005 ft | 476 kts | 137° |
| 2026-05-06 11:28 | 43.80808 | 18.40716 | 36992 ft | 476 kts | 137° |
| 2026-05-06 11:29 | 43.76213 | 18.47306 | 36985 ft | 476 kts | 137° |
| 2026-05-06 11:29 | 43.71618 | 18.53881 | 36997 ft | 475 kts | 137° |
| 2026-05-06 11:30 | 43.67009 | 18.60459 | 36988 ft | 476 kts | 137° |
| 2026-05-06 11:30 | 43.62393 | 18.67030 | 36998 ft | 476 kts | 137° |
| 2026-05-06 11:31 | 43.57811 | 18.73540 | 37004 ft | 476 kts | 137° |
| 2026-05-06 11:31 | 43.53194 | 18.80086 | 36991 ft | 476 kts | 137° |
| 2026-05-06 11:32 | 43.48574 | 18.86619 | 36994 ft | 477 kts | 137° |
| 2026-05-06 11:32 | 43.43942 | 18.93153 | 37005 ft | 477 kts | 137° |
| 2026-05-06 11:33 | 43.39298 | 18.99689 | 37013 ft | 478 kts | 137° |
| 2026-05-06 11:33 | 43.34639 | 19.06231 | 37011 ft | 479 kts | 137° |
| 2026-05-06 11:34 | 43.29977 | 19.12763 | 36989 ft | 479 kts | 137° |
| 2026-05-06 11:34 | 43.25309 | 19.19289 | 37004 ft | 479 kts | 137° |
| 2026-05-06 11:35 | 43.20637 | 19.25806 | 37002 ft | 479 kts | 137° |
| 2026-05-06 11:35 | 43.16136 | 19.32558 | 37019 ft | 481 kts | 132° |
| 2026-05-06 11:36 | 43.12661 | 19.38522 | 37010 ft | 482 kts | 131° |
| 2026-05-06 11:36 | 43.08492 | 19.45703 | 37021 ft | 482 kts | 131° |
| 2026-05-06 11:37 | 43.04268 | 19.52848 | 37013 ft | 483 kts | 131° |
| 2026-05-06 11:37 | 43.00030 | 19.59976 | 37006 ft | 483 kts | 131° |
| 2026-05-06 11:38 | 42.95782 | 19.67105 | 37028 ft | 484 kts | 131° |
| 2026-05-06 11:38 | 42.91528 | 19.74232 | 37016 ft | 484 kts | 131° |
| 2026-05-06 11:39 | 42.87272 | 19.81348 | 37010 ft | 484 kts | 131° |
| 2026-05-06 11:39 | 42.83013 | 19.88455 | 37024 ft | 484 kts | 131° |
| 2026-05-06 11:40 | 42.78747 | 19.95555 | 37028 ft | 485 kts | 131° |
| 2026-05-06 11:40 | 42.74472 | 20.02653 | 37029 ft | 485 kts | 131° |
| 2026-05-06 11:41 | 42.70183 | 20.09742 | 37026 ft | 485 kts | 132° |
| 2026-05-06 11:41 | 42.65889 | 20.16823 | 36988 ft | 485 kts | 131° |
| 2026-05-06 11:42 | 42.61637 | 20.23823 | 37042 ft | 484 kts | 131° |
| 2026-05-06 11:42 | 42.57343 | 20.30877 | 37034 ft | 485 kts | 131° |
| 2026-05-06 11:43 | 42.53038 | 20.37930 | 37048 ft | 485 kts | 131° |
| 2026-05-06 11:43 | 42.48732 | 20.44970 | 37047 ft | 485 kts | 131° |
| 2026-05-06 11:44 | 42.42260 | 20.55517 | 37056 ft | 486 kts | 131° |
| 2026-05-06 11:44 | 42.37932 | 20.62551 | 37053 ft | 486 kts | 131° |
| 2026-05-06 11:45 | 42.33598 | 20.69578 | 37053 ft | 487 kts | 131° |
| 2026-05-06 11:45 | 42.29261 | 20.76592 | 37053 ft | 487 kts | 131° |
| 2026-05-06 11:46 | 42.24916 | 20.83604 | 37065 ft | 487 kts | 131° |
| 2026-05-06 11:46 | 42.20559 | 20.90618 | 37052 ft | 488 kts | 131° |
| 2026-05-06 11:47 | 42.16198 | 20.97625 | 37063 ft | 488 kts | 131° |
| 2026-05-06 11:47 | 42.11831 | 21.04622 | 37040 ft | 488 kts | 131° |
| 2026-05-06 11:48 | 42.07105 | 21.11133 | 37047 ft | 486 kts | 139° |
| 2026-05-06 11:48 | 42.02128 | 21.17300 | 37033 ft | 486 kts | 139° |
| 2026-05-06 11:49 | 41.97153 | 21.23471 | 37033 ft | 487 kts | 139° |
| 2026-05-06 11:49 | 41.92204 | 21.29691 | 37033 ft | 487 kts | 138° |
| 2026-05-06 11:50 | 41.87262 | 21.35929 | 37032 ft | 488 kts | 138° |
| 2026-05-06 11:50 | 41.82320 | 21.42159 | 37038 ft | 488 kts | 138° |
| 2026-05-06 11:51 | 41.77367 | 21.48383 | 37020 ft | 488 kts | 138° |
| 2026-05-06 11:51 | 41.72441 | 21.54557 | 37026 ft | 488 kts | 138° |
| 2026-05-06 11:52 | 41.67485 | 21.60754 | 37029 ft | 488 kts | 138° |
| 2026-05-06 11:52 | 41.62524 | 21.66945 | 37037 ft | 488 kts | 138° |
| 2026-05-06 11:53 | 41.57557 | 21.73128 | 37033 ft | 488 kts | 138° |
| 2026-05-06 11:53 | 41.52592 | 21.79297 | 37043 ft | 488 kts | 139° |
| 2026-05-06 11:54 | 41.47617 | 21.85465 | 37023 ft | 489 kts | 138° |
| 2026-05-06 11:54 | 41.42627 | 21.91636 | 37038 ft | 489 kts | 139° |
| 2026-05-06 11:55 | 41.37630 | 21.97804 | 37036 ft | 490 kts | 139° |
| 2026-05-06 11:55 | 41.32625 | 22.03968 | 37038 ft | 490 kts | 138° |
| 2026-05-06 11:56 | 41.27611 | 22.10130 | 37032 ft | 490 kts | 139° |
| 2026-05-06 11:56 | 41.25103 | 22.13207 | 36881 ft | 493 kts | 138° |
| 2026-05-06 11:56 | 41.22572 | 22.16309 | 36529 ft | 495 kts | 139° |
| 2026-05-06 11:57 | 41.20041 | 22.19410 | 36135 ft | 495 kts | 139° |
| 2026-05-06 11:57 | 41.17508 | 22.22507 | 35725 ft | 495 kts | 139° |
| 2026-05-06 11:57 | 41.14945 | 22.25554 | 35299 ft | 495 kts | 141° |
| 2026-05-06 11:57 | 41.12302 | 22.28482 | 34841 ft | 495 kts | 142° |
| 2026-05-06 11:58 | 41.09617 | 22.31345 | 34435 ft | 496 kts | 143° |
| 2026-05-06 11:58 | 41.06912 | 22.34193 | 34002 ft | 497 kts | 143° |
| 2026-05-06 11:58 | 41.04208 | 22.37040 | 33528 ft | 497 kts | 143° |
| 2026-05-06 11:58 | 41.01503 | 22.39904 | 33087 ft | 498 kts | 143° |
| 2026-05-06 11:59 | 40.98799 | 22.42782 | 32642 ft | 499 kts | 143° |
| 2026-05-06 11:59 | 40.96102 | 22.45663 | 32207 ft | 499 kts | 143° |
| 2026-05-06 11:59 | 40.93394 | 22.48560 | 31804 ft | 503 kts | 142° |
| 2026-05-06 11:59 | 40.90660 | 22.51484 | 31382 ft | 509 kts | 142° |
| 2026-05-06 12:00 | 40.87898 | 22.54434 | 30951 ft | 511 kts | 142° |
| 2026-05-06 12:00 | 40.85136 | 22.57381 | 30520 ft | 511 kts | 142° |
| 2026-05-06 12:00 | 40.82364 | 22.60336 | 30090 ft | 512 kts | 142° |
| 2026-05-06 12:00 | 40.79590 | 22.63287 | 29589 ft | 512 kts | 142° |
| 2026-05-06 12:01 | 40.76852 | 22.66197 | 29112 ft | 513 kts | 142° |
| 2026-05-06 12:01 | 40.74071 | 22.69149 | 28634 ft | 513 kts | 142° |
| 2026-05-06 12:01 | 40.71294 | 22.72094 | 28162 ft | 513 kts | 142° |
| 2026-05-06 12:01 | 40.68507 | 22.75045 | 27707 ft | 514 kts | 142° |
| 2026-05-06 12:02 | 40.65713 | 22.78001 | 27249 ft | 515 kts | 142° |
| 2026-05-06 12:02 | 40.62917 | 22.80956 | 26805 ft | 517 kts | 142° |
| 2026-05-06 12:02 | 40.60102 | 22.83928 | 26343 ft | 519 kts | 142° |
| 2026-05-06 12:02 | 40.57281 | 22.86903 | 25872 ft | 521 kts | 142° |
| 2026-05-06 12:03 | 40.54448 | 22.89889 | 25391 ft | 522 kts | 142° |
| 2026-05-06 12:03 | 40.51615 | 22.92871 | 24918 ft | 522 kts | 142° |
| 2026-05-06 12:03 | 40.48794 | 22.95837 | 24429 ft | 515 kts | 142° |
| 2026-05-06 12:03 | 40.45922 | 22.98572 | 23971 ft | 507 kts | 149° |
| 2026-05-06 12:04 | 40.42826 | 23.00731 | 23366 ft | 503 kts | 159° |
| 2026-05-06 12:04 | 40.39571 | 23.02316 | 22855 ft | 495 kts | 162° |
| 2026-05-06 12:04 | 40.36351 | 23.03834 | 22360 ft | 489 kts | 162° |
| 2026-05-06 12:04 | 40.33176 | 23.05357 | 21911 ft | 484 kts | 161° |
| 2026-05-06 12:05 | 40.30036 | 23.06891 | 21475 ft | 480 kts | 161° |
| 2026-05-06 12:05 | 40.26922 | 23.08431 | 21021 ft | 477 kts | 161° |
| 2026-05-06 12:05 | 40.23829 | 23.09969 | 20596 ft | 474 kts | 161° |
| 2026-05-06 12:05 | 40.20754 | 23.11499 | 20182 ft | 472 kts | 160° |
| 2026-05-06 12:06 | 40.17689 | 23.13021 | 19742 ft | 470 kts | 160° |
| 2026-05-06 12:06 | 40.14676 | 23.14514 | 19310 ft | 468 kts | 160° |
| 2026-05-06 12:06 | 40.11595 | 23.16037 | 18866 ft | 466 kts | 160° |
| 2026-05-06 12:06 | 40.08608 | 23.17512 | 18545 ft | 462 kts | 160° |
| 2026-05-06 12:07 | 40.05618 | 23.18987 | 18107 ft | 459 kts | 160° |
| 2026-05-06 12:07 | 40.02640 | 23.20453 | 17651 ft | 456 kts | 160° |
| 2026-05-06 12:07 | 39.99684 | 23.21909 | 17205 ft | 453 kts | 160° |
| 2026-05-06 12:07 | 39.96751 | 23.23353 | 16778 ft | 449 kts | 160° |
| 2026-05-06 12:08 | 39.93834 | 23.24788 | 16353 ft | 446 kts | 160° |
| 2026-05-06 12:08 | 39.90936 | 23.26211 | 15937 ft | 443 kts | 160° |
| 2026-05-06 12:08 | 39.88065 | 23.27619 | 15540 ft | 440 kts | 160° |
| 2026-05-06 12:08 | 39.85211 | 23.29019 | 15134 ft | 437 kts | 160° |
| 2026-05-06 12:09 | 39.82375 | 23.30408 | 14733 ft | 434 kts | 160° |
| 2026-05-06 12:09 | 39.79560 | 23.31787 | 14321 ft | 431 kts | 160° |
| 2026-05-06 12:09 | 39.76764 | 23.33155 | 13909 ft | 429 kts | 160° |
| 2026-05-06 12:09 | 39.73979 | 23.34517 | 13446 ft | 426 kts | 160° |
| 2026-05-06 12:10 | 39.71222 | 23.35862 | 13042 ft | 421 kts | 160° |
| 2026-05-06 12:10 | 39.68497 | 23.37190 | 12639 ft | 415 kts | 160° |
| 2026-05-06 12:10 | 39.65815 | 23.38495 | 12236 ft | 409 kts | 160° |
| 2026-05-06 12:10 | 39.63166 | 23.39783 | 11841 ft | 403 kts | 160° |
| 2026-05-06 12:11 | 39.60573 | 23.41044 | 11449 ft | 393 kts | 160° |
| 2026-05-06 12:11 | 39.58045 | 23.42272 | 11072 ft | 383 kts | 160° |
| 2026-05-06 12:11 | 39.55579 | 23.43470 | 10706 ft | 374 kts | 160° |
| 2026-05-06 12:11 | 39.53166 | 23.44640 | 10346 ft | 366 kts | 160° |
| 2026-05-06 12:12 | 39.50815 | 23.45780 | 10117 ft | 354 kts | 160° |
| 2026-05-06 12:12 | 39.48539 | 23.46883 | 9822 ft | 346 kts | 160° |
| 2026-05-06 12:12 | 39.46307 | 23.47963 | 9464 ft | 340 kts | 160° |
| 2026-05-06 12:12 | 39.44109 | 23.49026 | 9130 ft | 334 kts | 160° |
| 2026-05-06 12:13 | 39.41951 | 23.50069 | 8805 ft | 328 kts | 160° |
| 2026-05-06 12:13 | 39.39833 | 23.51093 | 8534 ft | 322 kts | 160° |
| 2026-05-06 12:13 | 39.37753 | 23.52099 | 8218 ft | 317 kts | 160° |
| 2026-05-06 12:13 | 39.35702 | 23.53090 | 7895 ft | 313 kts | 160° |
| 2026-05-06 12:14 | 39.33676 | 23.54069 | 7581 ft | 309 kts | 160° |
| 2026-05-06 12:14 | 39.31677 | 23.55034 | 7276 ft | 305 kts | 160° |
| 2026-05-06 12:14 | 39.29696 | 23.55990 | 6969 ft | 302 kts | 160° |
| 2026-05-06 12:14 | 39.27762 | 23.56923 | 6668 ft | 299 kts | 160° |
| 2026-05-06 12:15 | 39.25821 | 23.57859 | 6368 ft | 297 kts | 160° |
| 2026-05-06 12:15 | 39.23871 | 23.58798 | 6048 ft | 294 kts | 160° |
| 2026-05-06 12:15 | 39.21999 | 23.59699 | 5749 ft | 287 kts | 160° |
| 2026-05-06 12:15 | 39.20164 | 23.60582 | 5458 ft | 277 kts | 160° |
| 2026-05-06 12:16 | 39.18354 | 23.61285 | 5180 ft | 268 kts | 168° |
| 2026-05-06 12:16 | 39.16568 | 23.61870 | 4933 ft | 264 kts | 165° |
| 2026-05-06 12:16 | 39.14821 | 23.62484 | 4809 ft | 257 kts | 165° |
| 2026-05-06 12:16 | 39.13131 | 23.63085 | 4791 ft | 245 kts | 165° |
| 2026-05-06 12:17 | 39.11507 | 23.63667 | 4793 ft | 241 kts | 165° |
| 2026-05-06 12:17 | 39.09845 | 23.64261 | 4308 ft | 255 kts | 165° |
| 2026-05-06 12:17 | 39.08149 | 23.64866 | 4142 ft | 250 kts | 165° |
| 2026-05-06 12:17 | 39.06483 | 23.65462 | 4039 ft | 247 kts | 165° |
| 2026-05-06 12:18 | 39.04823 | 23.66060 | 4012 ft | 247 kts | 165° |
| 2026-05-06 12:18 | 39.03169 | 23.66657 | 4007 ft | 246 kts | 165° |
| 2026-05-06 12:18 | 39.01518 | 23.67254 | 4012 ft | 247 kts | 165° |
| 2026-05-06 12:18 | 38.99943 | 23.68118 | 3992 ft | 249 kts | 140° |
| 2026-05-06 12:19 | 38.99020 | 23.69941 | 4011 ft | 249 kts | 103° |
| 2026-05-06 12:19 | 38.99132 | 23.72124 | 4009 ft | 248 kts | 65° |
| 2026-05-06 12:19 | 39.00234 | 23.73768 | 4015 ft | 246 kts | 28° |
| 2026-05-06 12:19 | 39.01857 | 23.74340 | 4032 ft | 244 kts | 5° |
| 2026-05-06 12:20 | 39.03561 | 23.74471 | 4003 ft | 246 kts | 351° |
| 2026-05-06 12:20 | 39.05076 | 23.73547 | 4012 ft | 244 kts | 313° |
| 2026-05-06 12:20 | 39.05833 | 23.71646 | 4012 ft | 243 kts | 277° |
| 2026-05-06 12:20 | 39.05793 | 23.69476 | 4019 ft | 244 kts | 265° |
| 2026-05-06 12:21 | 39.05629 | 23.67293 | 4009 ft | 245 kts | 262° |
| 2026-05-06 12:21 | 39.05361 | 23.65130 | 3996 ft | 244 kts | 260° |
| 2026-05-06 12:21 | 39.05078 | 23.62992 | 3997 ft | 242 kts | 260° |
| 2026-05-06 12:21 | 39.04792 | 23.60870 | 3989 ft | 237 kts | 260° |
| 2026-05-06 12:22 | 39.04514 | 23.58835 | 3983 ft | 224 kts | 260° |
| 2026-05-06 12:22 | 39.04249 | 23.56896 | 3988 ft | 217 kts | 260° |
| 2026-05-06 12:22 | 39.03957 | 23.55000 | 3994 ft | 216 kts | 255° |
| 2026-05-06 12:22 | 39.03542 | 23.53138 | 3997 ft | 217 kts | 254° |
| 2026-05-06 12:23 | 39.03130 | 23.51280 | 3879 ft | 214 kts | 260° |
| 2026-05-06 12:23 | 39.03263 | 23.49416 | 3573 ft | 209 kts | 294° |
| 2026-05-06 12:23 | 39.03777 | 23.48386 | 3340 ft | 207 kts | 313° |
| 2026-05-06 12:23 | 39.04967 | 23.47380 | 2908 ft | 206 kts | 341° |
| 2026-05-06 12:24 | 39.06314 | 23.47106 | 2795 ft | 190 kts | 2° |
| 2026-05-06 12:24 | 39.07601 | 23.47399 | 2324 ft | 195 kts | 12° |
| 2026-05-06 12:24 | 39.08965 | 23.47789 | 1705 ft | 200 kts | 13° |
| 2026-05-06 12:24 | 39.10269 | 23.48162 | 1432 ft | 184 kts | 13° |
| 2026-05-06 12:25 | 39.11462 | 23.48503 | 1223 ft | 166 kts | 14° |
| 2026-05-06 12:25 | 39.12546 | 23.48814 | 970 ft | 155 kts | 13° |
| 2026-05-06 12:25 | 39.13589 | 23.49112 | 796 ft | 153 kts | 11° |
| 2026-05-06 12:25 | 39.14633 | 23.49332 | 583 ft | 151 kts | 6° |
| 2026-05-06 12:26 | 39.15675 | 23.49497 | 346 ft | 152 kts | 9° |
| 2026-05-06 12:26 | 39.16659 | 23.49898 | 119 ft | 147 kts | 18° |
| 2026-05-06 12:26 | 39.17585 | 23.50310 | 40 ft | 123 kts | 19° |
| 2026-05-06 12:26 | 39.18180 | 23.50576 | 51 ft | 61 kts | 19° |
| 2026-05-06 12:27 | 39.18404 | 23.50684 | 56 ft | 13 kts | 27° |
| 2026-05-06 12:27 | 39.18422 | 23.50667 | 54 ft | 3 kts | 238° |
| 2026-05-06 12:27 | 39.18395 | 23.50668 | 57 ft | 6 kts | 182° |
| 2026-05-06 12:27 | 39.18335 | 23.50646 | 51 ft | 13 kts | 194° |
| 2026-05-06 12:28 | 39.18222 | 23.50596 | 52 ft | 21 kts | 198° |
| 2026-05-06 12:28 | 39.18102 | 23.50539 | 49 ft | 17 kts | 201° |
| 2026-05-06 12:28 | 39.17989 | 23.50490 | 45 ft | 17 kts | 200° |
| 2026-05-06 12:28 | 39.17926 | 23.50388 | 41 ft | 9 kts | 252° |
| 2026-05-06 12:29 | 39.17888 | 23.50327 | 39 ft | 10 kts | 201° |
| 2026-05-06 12:29 | 39.17821 | 23.50296 | 38 ft | 10 kts | 199° |
| 2026-05-06 12:29 | 39.17780 | 23.50272 | 37 ft | 1 kts | 245° |
| 2026-05-06 12:29 | 39.17789 | 23.50235 | 38 ft | 7 kts | 290° |
| 2026-05-06 12:30 | 39.17801 | 23.50193 | 38 ft | 0 kts | 289° |